sensor_id;sensor_type;location;lat;lon;timestamp;P1;P2;P0
46381;PMS5003;66809;52.974;-2.514;2023-07-20T00:01:40;6.716666666666667;6.4;
46381;PMS5003;66809;52.974;-2.514;2023-07-20T00:03:41;6.783333333333333;6.45;
46381;PMS5003;66809;52.974;-2.514;2023-07-20T00:05:41;6.8;6.45;
46381;PMS5003;66809;52.974;-2.514;2023-07-20T00:07:41;6.85;6.45;
46381;PMS5003;66809;52.974;-2.514;2023-07-20T00:09:41;6.816666666666666;6.416666666666667;
46381;PMS5003;66809;52.974;-2.514;2023-07-20T00:11:47;6.816666666666666;6.433333333333334;
46381;PMS5003;66809;52.974;-2.514;2023-07-20T00:13:40;6.75;6.383333333333334;
46381;PMS5003;66809;52.974;-2.514;2023-07-20T00:15:41;6.733333333333333;6.383333333333334;
46381;PMS5003;66809;52.974;-2.514;2023-07-20T00:17:41;6.733333333333333;6.416666666666667;
46381;PMS5003;66809;52.974;-2.514;2023-07-20T00:19:40;6.75;6.466666666666667;
46381;PMS5003;66809;52.974;-2.514;2023-07-20T00:21:41;6.783333333333333;6.466666666666667;
46381;PMS5003;66809;52.974;-2.514;2023-07-20T00:23:40;6.85;6.516666666666667;
46381;PMS5003;66809;52.974;-2.514;2023-07-20T00:25:41;7.0;6.666666666666667;
46381;PMS5003;66809;52.974;-2.514;2023-07-20T00:27:41;7.05;6.716666666666667;
46381;PMS5003;66809;52.974;-2.514;2023-07-20T00:29:40;7.183333333333334;6.833333333333333;
46381;PMS5003;66809;52.974;-2.514;2023-07-20T00:31:41;7.25;6.883333333333334;
46381;PMS5003;66809;52.974;-2.514;2023-07-20T00:33:41;7.3;6.966666666666667;
46381;PMS5003;66809;52.974;-2.514;2023-07-20T00:35:40;7.316666666666666;6.95;
46381;PMS5003;66809;52.974;-2.514;2023-07-20T00:37:41;7.283333333333333;6.916666666666667;
46381;PMS5003;66809;52.974;-2.514;2023-07-20T00:39:40;7.3;6.95;
46381;PMS5003;66809;52.974;-2.514;2023-07-20T00:41:41;7.266666666666667;6.9;
46381;PMS5003;66809;52.974;-2.514;2023-07-20T00:43:41;7.316666666666666;6.916666666666667;
46381;PMS5003;66809;52.974;-2.514;2023-07-20T00:45:41;7.366666666666666;6.933333333333334;
46381;PMS5003;66809;52.974;-2.514;2023-07-20T00:47:40;7.4;6.933333333333334;
46381;PMS5003;66809;52.974;-2.514;2023-07-20T00:49:40;7.35;6.883333333333334;
46381;PMS5003;66809;52.974;-2.514;2023-07-20T00:51:41;7.4;6.866666666666666;
46381;PMS5003;66809;52.974;-2.514;2023-07-20T00:53:41;7.316666666666666;6.783333333333333;
46381;PMS5003;66809;52.974;-2.514;2023-07-20T00:55:41;7.383333333333334;6.8;
46381;PMS5003;66809;52.974;-2.514;2023-07-20T00:57:40;7.4;6.816666666666666;
46381;PMS5003;66809;52.974;-2.514;2023-07-20T00:59:40;7.4;6.816666666666666;
46381;PMS5003;66809;52.974;-2.514;2023-07-20T01:01:40;7.3;6.766666666666667;
46381;PMS5003;66809;52.974;-2.514;2023-07-20T01:03:41;7.283333333333333;6.766666666666667;
46381;PMS5003;66809;52.974;-2.514;2023-07-20T01:05:42;7.233333333333333;6.716666666666667;
46381;PMS5003;66809;52.974;-2.514;2023-07-20T01:07:43;7.166666666666667;6.7;
46381;PMS5003;66809;52.974;-2.514;2023-07-20T01:09:42;7.15;6.65;
46381;PMS5003;66809;52.974;-2.514;2023-07-20T01:11:43;7.083333333333333;6.583333333333333;
46381;PMS5003;66809;52.974;-2.514;2023-07-20T01:13:41;7.1;6.6;
46381;PMS5003;66809;52.974;-2.514;2023-07-20T01:15:40;7.1;6.55;
46381;PMS5003;66809;52.974;-2.514;2023-07-20T01:17:41;6.983333333333333;6.416666666666667;
46381;PMS5003;66809;52.974;-2.514;2023-07-20T01:19:41;6.95;6.366666666666666;
46381;PMS5003;66809;52.974;-2.514;2023-07-20T01:21:43;6.9;6.35;
46381;PMS5003;66809;52.974;-2.514;2023-07-20T01:23:52;6.9;6.35;
46381;PMS5003;66809;52.974;-2.514;2023-07-20T01:25:45;6.783333333333333;6.233333333333333;
46381;PMS5003;66809;52.974;-2.514;2023-07-20T01:27:47;6.833333333333333;6.25;
46381;PMS5003;66809;52.974;-2.514;2023-07-20T01:29:44;6.783333333333333;6.233333333333333;
46381;PMS5003;66809;52.974;-2.514;2023-07-20T01:31:41;6.783333333333333;6.25;
46381;PMS5003;66809;52.974;-2.514;2023-07-20T01:33:41;6.716666666666667;6.183333333333334;
46381;PMS5003;66809;52.974;-2.514;2023-07-20T01:35:41;6.7;6.2;
46381;PMS5003;66809;52.974;-2.514;2023-07-20T01:37:41;6.733333333333333;6.233333333333333;
46381;PMS5003;66809;52.974;-2.514;2023-07-20T01:39:41;6.7;6.2;
46381;PMS5003;66809;52.974;-2.514;2023-07-20T01:41:40;6.75;6.266666666666667;
46381;PMS5003;66809;52.974;-2.514;2023-07-20T01:43:42;6.766666666666667;6.3;
46381;PMS5003;66809;52.974;-2.514;2023-07-20T01:45:40;6.683333333333334;6.233333333333333;
46381;PMS5003;66809;52.974;-2.514;2023-07-20T01:47:41;6.666666666666667;6.25;
46381;PMS5003;66809;52.974;-2.514;2023-07-20T01:49:41;6.716666666666667;6.3;
46381;PMS5003;66809;52.974;-2.514;2023-07-20T01:51:40;6.683333333333334;6.333333333333333;
46381;PMS5003;66809;52.974;-2.514;2023-07-20T01:53:41;6.833333333333333;6.466666666666667;
46381;PMS5003;66809;52.974;-2.514;2023-07-20T01:55:40;6.866666666666666;6.533333333333333;
46381;PMS5003;66809;52.974;-2.514;2023-07-20T01:57:41;6.933333333333334;6.616666666666666;
46381;PMS5003;66809;52.974;-2.514;2023-07-20T01:59:41;7.033333333333333;6.683333333333334;
46381;PMS5003;66809;52.974;-2.514;2023-07-20T02:01:40;7.15;6.783333333333333;
46381;PMS5003;66809;52.974;-2.514;2023-07-20T02:03:41;7.216666666666667;6.816666666666666;
46381;PMS5003;66809;52.974;-2.514;2023-07-20T02:05:41;7.233333333333333;6.85;
46381;PMS5003;66809;52.974;-2.514;2023-07-20T02:07:41;7.266666666666667;6.866666666666666;
46381;PMS5003;66809;52.974;-2.514;2023-07-20T02:09:41;7.416666666666667;7.016666666666667;
46381;PMS5003;66809;52.974;-2.514;2023-07-20T02:11:40;7.483333333333333;7.116666666666666;
46381;PMS5003;66809;52.974;-2.514;2023-07-20T02:13:41;7.516666666666667;7.15;
46381;PMS5003;66809;52.974;-2.514;2023-07-20T02:15:41;7.583333333333333;7.216666666666667;
46381;PMS5003;66809;52.974;-2.514;2023-07-20T02:17:41;7.666666666666667;7.316666666666666;
46381;PMS5003;66809;52.974;-2.514;2023-07-20T02:19:40;7.666666666666667;7.333333333333333;
46381;PMS5003;66809;52.974;-2.514;2023-07-20T02:21:41;7.733333333333333;7.383333333333334;
46381;PMS5003;66809;52.974;-2.514;2023-07-20T02:23:41;7.75;7.433333333333334;
46381;PMS5003;66809;52.974;-2.514;2023-07-20T02:25:41;7.766666666666667;7.433333333333334;
46381;PMS5003;66809;52.974;-2.514;2023-07-20T02:27:41;7.7;7.383333333333334;
46381;PMS5003;66809;52.974;-2.514;2023-07-20T02:29:41;7.65;7.333333333333333;
46381;PMS5003;66809;52.974;-2.514;2023-07-20T02:31:41;7.666666666666667;7.35;
46381;PMS5003;66809;52.974;-2.514;2023-07-20T02:33:41;7.716666666666667;7.383333333333334;
46381;PMS5003;66809;52.974;-2.514;2023-07-20T02:35:41;7.716666666666667;7.383333333333334;
46381;PMS5003;66809;52.974;-2.514;2023-07-20T02:37:41;7.783333333333333;7.45;
46381;PMS5003;66809;52.974;-2.514;2023-07-20T02:39:41;7.866666666666666;7.5;
46381;PMS5003;66809;52.974;-2.514;2023-07-20T02:41:41;7.85;7.483333333333333;
46381;PMS5003;66809;52.974;-2.514;2023-07-20T02:43:41;7.816666666666666;7.433333333333334;
46381;PMS5003;66809;52.974;-2.514;2023-07-20T02:45:41;7.766666666666667;7.4;
46381;PMS5003;66809;52.974;-2.514;2023-07-20T02:47:40;7.883333333333334;7.5;
46381;PMS5003;66809;52.974;-2.514;2023-07-20T02:49:41;7.883333333333334;7.466666666666667;
46381;PMS5003;66809;52.974;-2.514;2023-07-20T02:51:40;7.9;7.466666666666667;
46381;PMS5003;66809;52.974;-2.514;2023-07-20T02:53:41;7.95;7.5;
46381;PMS5003;66809;52.974;-2.514;2023-07-20T02:55:41;8.0;7.533333333333333;
46381;PMS5003;66809;52.974;-2.514;2023-07-20T02:57:40;8.0;7.5;
46381;PMS5003;66809;52.974;-2.514;2023-07-20T02:59:41;7.916666666666667;7.45;
46381;PMS5003;66809;52.974;-2.514;2023-07-20T03:01:40;7.883333333333334;7.416666666666667;
46381;PMS5003;66809;52.974;-2.514;2023-07-20T03:03:41;7.933333333333334;7.483333333333333;
46381;PMS5003;66809;52.974;-2.514;2023-07-20T03:05:41;7.95;7.483333333333333;
46381;PMS5003;66809;52.974;-2.514;2023-07-20T03:07:41;7.983333333333333;7.5;
46381;PMS5003;66809;52.974;-2.514;2023-07-20T03:09:40;7.933333333333334;7.483333333333333;
46381;PMS5003;66809;52.974;-2.514;2023-07-20T03:11:41;8.016666666666667;7.533333333333333;
46381;PMS5003;66809;52.974;-2.514;2023-07-20T03:13:40;8.133333333333333;7.616666666666666;
46381;PMS5003;66809;52.974;-2.514;2023-07-20T03:15:41;8.066666666666666;7.6;
46381;PMS5003;66809;52.974;-2.514;2023-07-20T03:17:41;8.15;7.683333333333334;
46381;PMS5003;66809;52.974;-2.514;2023-07-20T03:19:40;8.25;7.766666666666667;
46381;PMS5003;66809;52.974;-2.514;2023-07-20T03:21:41;8.2;7.733333333333333;
46381;PMS5003;66809;52.974;-2.514;2023-07-20T03:23:40;8.133333333333333;7.666666666666667;
46381;PMS5003;66809;52.974;-2.514;2023-07-20T03:25:41;8.233333333333333;7.783333333333333;
46381;PMS5003;66809;52.974;-2.514;2023-07-20T03:27:41;8.283333333333333;7.85;
46381;PMS5003;66809;52.974;-2.514;2023-07-20T03:29:41;8.35;7.9;
46381;PMS5003;66809;52.974;-2.514;2023-07-20T03:31:40;8.35;7.9;
46381;PMS5003;66809;52.974;-2.514;2023-07-20T03:33:41;8.433333333333334;8.0;
46381;PMS5003;66809;52.974;-2.514;2023-07-20T03:35:42;8.483333333333333;8.033333333333333;
46381;PMS5003;66809;52.974;-2.514;2023-07-20T03:37:41;8.533333333333333;8.083333333333334;
46381;PMS5003;66809;52.974;-2.514;2023-07-20T03:39:41;8.516666666666667;8.05;
46381;PMS5003;66809;52.974;-2.514;2023-07-20T03:41:41;8.633333333333333;8.15;
46381;PMS5003;66809;52.974;-2.514;2023-07-20T03:43:41;8.65;8.2;
46381;PMS5003;66809;52.974;-2.514;2023-07-20T03:45:40;8.816666666666666;8.3;
46381;PMS5003;66809;52.974;-2.514;2023-07-20T03:47:41;8.766666666666667;8.216666666666667;
46381;PMS5003;66809;52.974;-2.514;2023-07-20T03:49:40;8.75;8.233333333333333;
46381;PMS5003;66809;52.974;-2.514;2023-07-20T03:51:41;8.733333333333333;8.2;
46381;PMS5003;66809;52.974;-2.514;2023-07-20T03:53:41;8.783333333333333;8.216666666666667;
46381;PMS5003;66809;52.974;-2.514;2023-07-20T03:55:40;8.716666666666667;8.183333333333334;
46381;PMS5003;66809;52.974;-2.514;2023-07-20T03:57:41;8.666666666666666;8.15;
46381;PMS5003;66809;52.974;-2.514;2023-07-20T03:59:44;8.733333333333333;8.2;
46381;PMS5003;66809;52.974;-2.514;2023-07-20T04:01:41;8.75;8.233333333333333;
46381;PMS5003;66809;52.974;-2.514;2023-07-20T04:03:41;8.716666666666667;8.183333333333334;
46381;PMS5003;66809;52.974;-2.514;2023-07-20T04:05:41;8.766666666666667;8.233333333333333;
46381;PMS5003;66809;52.974;-2.514;2023-07-20T04:07:41;8.783333333333333;8.233333333333333;
46381;PMS5003;66809;52.974;-2.514;2023-07-20T04:09:41;8.8;8.2;
46381;PMS5003;66809;52.974;-2.514;2023-07-20T04:11:40;8.716666666666667;8.15;
46381;PMS5003;66809;52.974;-2.514;2023-07-20T04:13:41;8.7;8.15;
46381;PMS5003;66809;52.974;-2.514;2023-07-20T04:15:41;8.916666666666666;8.35;
46381;PMS5003;66809;52.974;-2.514;2023-07-20T04:17:41;8.9;8.333333333333334;
46381;PMS5003;66809;52.974;-2.514;2023-07-20T04:19:41;8.916666666666666;8.35;
46381;PMS5003;66809;52.974;-2.514;2023-07-20T04:21:41;8.983333333333333;8.366666666666667;
46381;PMS5003;66809;52.974;-2.514;2023-07-20T04:23:41;9.066666666666666;8.4;
46381;PMS5003;66809;52.974;-2.514;2023-07-20T04:25:41;9.016666666666667;8.333333333333334;
46381;PMS5003;66809;52.974;-2.514;2023-07-20T04:27:40;9.016666666666667;8.333333333333334;
46381;PMS5003;66809;52.974;-2.514;2023-07-20T04:29:41;9.083333333333334;8.366666666666667;
46381;PMS5003;66809;52.974;-2.514;2023-07-20T04:31:40;9.05;8.333333333333334;
46381;PMS5003;66809;52.974;-2.514;2023-07-20T04:33:41;8.933333333333334;8.2;
46381;PMS5003;66809;52.974;-2.514;2023-07-20T04:35:44;8.85;8.133333333333333;
46381;PMS5003;66809;52.974;-2.514;2023-07-20T04:37:41;8.816666666666666;8.083333333333334;
46381;PMS5003;66809;52.974;-2.514;2023-07-20T04:39:41;8.733333333333333;8.05;
46381;PMS5003;66809;52.974;-2.514;2023-07-20T04:41:41;8.7;8.033333333333333;
46381;PMS5003;66809;52.974;-2.514;2023-07-20T04:43:41;8.7;8.033333333333333;
46381;PMS5003;66809;52.974;-2.514;2023-07-20T04:45:41;8.75;8.15;
46381;PMS5003;66809;52.974;-2.514;2023-07-20T04:47:41;8.716666666666667;8.15;
46381;PMS5003;66809;52.974;-2.514;2023-07-20T04:49:40;8.75;8.183333333333334;
46381;PMS5003;66809;52.974;-2.514;2023-07-20T04:51:41;8.783333333333333;8.233333333333333;
46381;PMS5003;66809;52.974;-2.514;2023-07-20T04:53:41;8.716666666666667;8.233333333333333;
46381;PMS5003;66809;52.974;-2.514;2023-07-20T04:55:46;8.733333333333333;8.233333333333333;
46381;PMS5003;66809;52.974;-2.514;2023-07-20T04:57:41;8.716666666666667;8.216666666666667;
46381;PMS5003;66809;52.974;-2.514;2023-07-20T04:59:40;8.683333333333334;8.2;
46381;PMS5003;66809;52.974;-2.514;2023-07-20T05:01:41;8.666666666666666;8.183333333333334;
46381;PMS5003;66809;52.974;-2.514;2023-07-20T05:03:40;8.683333333333334;8.2;
46381;PMS5003;66809;52.974;-2.514;2023-07-20T05:05:40;8.666666666666666;8.2;
46381;PMS5003;66809;52.974;-2.514;2023-07-20T05:07:41;8.666666666666666;8.2;
46381;PMS5003;66809;52.974;-2.514;2023-07-20T05:09:40;8.666666666666666;8.233333333333333;
46381;PMS5003;66809;52.974;-2.514;2023-07-20T05:11:41;8.666666666666666;8.216666666666667;
46381;PMS5003;66809;52.974;-2.514;2023-07-20T05:13:41;8.6;8.166666666666666;
46381;PMS5003;66809;52.974;-2.514;2023-07-20T05:15:40;8.45;8.033333333333333;
46381;PMS5003;66809;52.974;-2.514;2023-07-20T05:17:41;8.416666666666666;8.016666666666667;
46381;PMS5003;66809;52.974;-2.514;2023-07-20T05:19:41;8.383333333333333;8.0;
46381;PMS5003;66809;52.974;-2.514;2023-07-20T05:21:40;8.366666666666667;8.0;
46381;PMS5003;66809;52.974;-2.514;2023-07-20T05:23:41;8.416666666666666;8.083333333333334;
46381;PMS5003;66809;52.974;-2.514;2023-07-20T05:25:41;8.4;8.066666666666666;
46381;PMS5003;66809;52.974;-2.514;2023-07-20T05:27:41;8.316666666666666;7.983333333333333;
46381;PMS5003;66809;52.974;-2.514;2023-07-20T05:29:43;8.183333333333334;7.9;
46381;PMS5003;66809;52.974;-2.514;2023-07-20T05:31:41;8.25;7.95;
46381;PMS5003;66809;52.974;-2.514;2023-07-20T05:33:40;8.316666666666666;8.016666666666667;
46381;PMS5003;66809;52.974;-2.514;2023-07-20T05:35:41;8.35;8.05;
46381;PMS5003;66809;52.974;-2.514;2023-07-20T05:37:40;8.35;8.016666666666667;
46381;PMS5003;66809;52.974;-2.514;2023-07-20T05:39:41;8.4;8.066666666666666;
46381;PMS5003;66809;52.974;-2.514;2023-07-20T05:41:41;8.366666666666667;8.033333333333333;
46381;PMS5003;66809;52.974;-2.514;2023-07-20T05:43:41;8.366666666666667;8.033333333333333;
46381;PMS5003;66809;52.974;-2.514;2023-07-20T05:45:41;8.25;7.916666666666667;
46381;PMS5003;66809;52.974;-2.514;2023-07-20T05:47:41;8.216666666666667;7.866666666666666;
46381;PMS5003;66809;52.974;-2.514;2023-07-20T05:49:41;8.233333333333333;7.85;
46381;PMS5003;66809;52.974;-2.514;2023-07-20T05:51:40;8.25;7.866666666666666;
46381;PMS5003;66809;52.974;-2.514;2023-07-20T05:53:41;8.266666666666667;7.85;
46381;PMS5003;66809;52.974;-2.514;2023-07-20T05:55:41;8.233333333333333;7.8;
46381;PMS5003;66809;52.974;-2.514;2023-07-20T05:57:41;8.233333333333333;7.783333333333333;
46381;PMS5003;66809;52.974;-2.514;2023-07-20T05:59:41;8.233333333333333;7.733333333333333;
46381;PMS5003;66809;52.974;-2.514;2023-07-20T06:01:41;8.2;7.7;
46381;PMS5003;66809;52.974;-2.514;2023-07-20T06:03:40;8.116666666666667;7.616666666666666;
46381;PMS5003;66809;52.974;-2.514;2023-07-20T06:05:41;8.033333333333333;7.533333333333333;
46381;PMS5003;66809;52.974;-2.514;2023-07-20T06:07:40;8.0;7.55;
46381;PMS5003;66809;52.974;-2.514;2023-07-20T06:09:41;7.95;7.516666666666667;
46381;PMS5003;66809;52.974;-2.514;2023-07-20T06:11:41;7.9;7.483333333333333;
46381;PMS5003;66809;52.974;-2.514;2023-07-20T06:13:40;7.9;7.483333333333333;
46381;PMS5003;66809;52.974;-2.514;2023-07-20T06:15:41;7.85;7.433333333333334;
46381;PMS5003;66809;52.974;-2.514;2023-07-20T06:17:40;7.816666666666666;7.383333333333334;
46381;PMS5003;66809;52.974;-2.514;2023-07-20T06:19:41;7.766666666666667;7.333333333333333;
46381;PMS5003;66809;52.974;-2.514;2023-07-20T06:21:41;7.666666666666667;7.266666666666667;
46381;PMS5003;66809;52.974;-2.514;2023-07-20T06:23:40;7.55;7.133333333333334;
46381;PMS5003;66809;52.974;-2.514;2023-07-20T06:25:41;7.416666666666667;7.016666666666667;
46381;PMS5003;66809;52.974;-2.514;2023-07-20T06:27:41;7.383333333333334;6.983333333333333;
46381;PMS5003;66809;52.974;-2.514;2023-07-20T06:29:41;7.533333333333333;7.083333333333333;
46381;PMS5003;66809;52.974;-2.514;2023-07-20T06:31:40;7.433333333333334;7.0;
46381;PMS5003;66809;52.974;-2.514;2023-07-20T06:33:41;7.316666666666666;6.9;
46381;PMS5003;66809;52.974;-2.514;2023-07-20T06:35:41;7.233333333333333;6.8;
46381;PMS5003;66809;52.974;-2.514;2023-07-20T06:37:41;7.216666666666667;6.816666666666666;
46381;PMS5003;66809;52.974;-2.514;2023-07-20T06:39:41;7.166666666666667;6.766666666666667;
46381;PMS5003;66809;52.974;-2.514;2023-07-20T06:41:41;7.0;6.583333333333333;
46381;PMS5003;66809;52.974;-2.514;2023-07-20T06:43:41;6.866666666666666;6.45;
46381;PMS5003;66809;52.974;-2.514;2023-07-20T06:45:41;6.85;6.433333333333334;
46381;PMS5003;66809;52.974;-2.514;2023-07-20T06:47:40;6.8;6.416666666666667;
46381;PMS5003;66809;52.974;-2.514;2023-07-20T06:49:41;6.7;6.333333333333333;
46381;PMS5003;66809;52.974;-2.514;2023-07-20T06:51:40;6.6;6.25;
46381;PMS5003;66809;52.974;-2.514;2023-07-20T06:53:41;6.433333333333334;6.1;
46381;PMS5003;66809;52.974;-2.514;2023-07-20T06:55:41;6.383333333333334;6.083333333333333;
46381;PMS5003;66809;52.974;-2.514;2023-07-20T06:57:41;6.4;6.05;
46381;PMS5003;66809;52.974;-2.514;2023-07-20T06:59:40;6.316666666666666;6.016666666666667;
46381;PMS5003;66809;52.974;-2.514;2023-07-20T07:01:41;6.283333333333333;5.983333333333333;
46381;PMS5003;66809;52.974;-2.514;2023-07-20T07:05:35;3.0;2.857142857142857;
46381;PMS5003;66809;52.974;-2.514;2023-07-20T07:07:34;4.777777777777778;4.222222222222222;
46381;PMS5003;66809;52.974;-2.514;2023-07-20T07:09:34;5.363636363636363;4.818181818181818;
46381;PMS5003;66809;52.974;-2.514;2023-07-20T07:11:35;5.615384615384615;5.153846153846154;
46381;PMS5003;66809;52.974;-2.514;2023-07-20T07:13:34;5.866666666666666;5.333333333333333;
46381;PMS5003;66809;52.974;-2.514;2023-07-20T07:15:34;6.352941176470588;5.882352941176471;
46381;PMS5003;66809;52.974;-2.514;2023-07-20T07:17:34;6.2631578947368425;5.842105263157895;
46381;PMS5003;66809;52.974;-2.514;2023-07-20T07:19:34;6.523809523809524;6.142857142857143;
46381;PMS5003;66809;52.974;-2.514;2023-07-20T07:21:35;6.6521739130434785;6.260869565217392;
46381;PMS5003;66809;52.974;-2.514;2023-07-20T07:23:34;6.76;6.4;
46381;PMS5003;66809;52.974;-2.514;2023-07-20T07:25:34;6.888888888888889;6.518518518518518;
46381;PMS5003;66809;52.974;-2.514;2023-07-20T07:27:35;6.9655172413793105;6.620689655172414;
46381;PMS5003;66809;52.974;-2.514;2023-07-20T07:29:34;7.258064516129032;6.903225806451613;
46381;PMS5003;66809;52.974;-2.514;2023-07-20T07:31:34;7.363636363636363;7.0;
46381;PMS5003;66809;52.974;-2.514;2023-07-20T07:33:34;7.6;7.2;
46381;PMS5003;66809;52.974;-2.514;2023-07-20T07:35:34;7.648648648648648;7.27027027027027;
46381;PMS5003;66809;52.974;-2.514;2023-07-20T07:37:34;8.0;7.435897435897436;
46381;PMS5003;66809;52.974;-2.514;2023-07-20T07:39:34;8.170731707317072;7.609756097560975;
46381;PMS5003;66809;52.974;-2.514;2023-07-20T07:41:35;8.372093023255815;7.837209302325581;
46381;PMS5003;66809;52.974;-2.514;2023-07-20T07:43:34;8.577777777777778;8.066666666666666;
46381;PMS5003;66809;52.974;-2.514;2023-07-20T07:45:35;8.829787234042554;8.23404255319149;
46381;PMS5003;66809;52.974;-2.514;2023-07-20T07:47:34;8.938775510204081;8.346938775510203;
46381;PMS5003;66809;52.974;-2.514;2023-07-20T07:49:34;8.96078431372549;8.392156862745098;
46381;PMS5003;66809;52.974;-2.514;2023-07-20T07:51:35;8.962264150943396;8.415094339622641;
46381;PMS5003;66809;52.974;-2.514;2023-07-20T07:53:34;9.054545454545455;8.472727272727273;
46381;PMS5003;66809;52.974;-2.514;2023-07-20T07:55:34;9.192982456140351;8.614035087719298;
46381;PMS5003;66809;52.974;-2.514;2023-07-20T07:57:34;9.220338983050848;8.661016949152541;
46381;PMS5003;66809;52.974;-2.514;2023-07-20T07:59:35;9.333333333333334;8.783333333333333;
46381;PMS5003;66809;52.974;-2.514;2023-07-20T08:01:34;9.7;9.133333333333333;
46381;PMS5003;66809;52.974;-2.514;2023-07-20T08:03:34;10.166666666666666;9.583333333333334;
46381;PMS5003;66809;52.974;-2.514;2023-07-20T08:05:35;10.616666666666667;9.916666666666666;
46381;PMS5003;66809;52.974;-2.514;2023-07-20T08:07:34;10.683333333333334;10.0;
46381;PMS5003;66809;52.974;-2.514;2023-07-20T08:09:34;10.95;10.266666666666667;
46381;PMS5003;66809;52.974;-2.514;2023-07-20T08:11:35;11.183333333333334;10.5;
46381;PMS5003;66809;52.974;-2.514;2023-07-20T08:13:34;11.233333333333333;10.583333333333334;
46381;PMS5003;66809;52.974;-2.514;2023-07-20T08:15:34;11.183333333333334;10.533333333333333;
46381;PMS5003;66809;52.974;-2.514;2023-07-20T08:17:34;11.25;10.566666666666666;
46381;PMS5003;66809;52.974;-2.514;2023-07-20T08:19:36;11.366666666666667;10.65;
46381;PMS5003;66809;52.974;-2.514;2023-07-20T08:21:34;11.366666666666667;10.666666666666666;
46381;PMS5003;66809;52.974;-2.514;2023-07-20T08:23:35;11.483333333333333;10.733333333333333;
46381;PMS5003;66809;52.974;-2.514;2023-07-20T08:25:35;11.6;10.866666666666667;
46381;PMS5003;66809;52.974;-2.514;2023-07-20T08:27:34;11.733333333333333;10.983333333333333;
46381;PMS5003;66809;52.974;-2.514;2023-07-20T08:29:34;11.866666666666667;11.083333333333334;
46381;PMS5003;66809;52.974;-2.514;2023-07-20T08:31:34;11.966666666666667;11.2;
46381;PMS5003;66809;52.974;-2.514;2023-07-20T08:33:35;12.066666666666666;11.333333333333334;
46381;PMS5003;66809;52.974;-2.514;2023-07-20T08:35:34;12.216666666666667;11.433333333333334;
46381;PMS5003;66809;52.974;-2.514;2023-07-20T08:37:35;12.183333333333334;11.5;
46381;PMS5003;66809;52.974;-2.514;2023-07-20T08:39:36;12.333333333333334;11.65;
46381;PMS5003;66809;52.974;-2.514;2023-07-20T08:43:28;7.6;7.4;
46381;PMS5003;66809;52.974;-2.514;2023-07-20T08:45:28;8.714285714285714;8.571428571428571;
46381;PMS5003;66809;52.974;-2.514;2023-07-20T08:47:28;9.555555555555555;9.444444444444445;
46381;PMS5003;66809;52.974;-2.514;2023-07-20T08:49:28;9.181818181818182;9.090909090909092;
46381;PMS5003;66809;52.974;-2.514;2023-07-20T08:51:28;9.23076923076923;9.0;
46381;PMS5003;66809;52.974;-2.514;2023-07-20T08:53:28;9.266666666666667;9.066666666666666;
46381;PMS5003;66809;52.974;-2.514;2023-07-20T08:55:28;9.588235294117647;9.352941176470589;
46381;PMS5003;66809;52.974;-2.514;2023-07-20T08:57:28;9.947368421052632;9.68421052631579;
46381;PMS5003;66809;52.974;-2.514;2023-07-20T08:59:28;10.238095238095237;9.904761904761905;
46381;PMS5003;66809;52.974;-2.514;2023-07-20T09:01:28;10.130434782608695;9.73913043478261;
46381;PMS5003;66809;52.974;-2.514;2023-07-20T09:03:28;10.16;9.76;
46381;PMS5003;66809;52.974;-2.514;2023-07-20T09:05:28;10.296296296296296;9.925925925925926;
46381;PMS5003;66809;52.974;-2.514;2023-07-20T09:07:28;10.413793103448276;9.931034482758621;
46381;PMS5003;66809;52.974;-2.514;2023-07-20T09:09:28;10.451612903225806;9.935483870967742;
46381;PMS5003;66809;52.974;-2.514;2023-07-20T09:11:27;10.515151515151516;9.969696969696969;
46381;PMS5003;66809;52.974;-2.514;2023-07-20T09:13:28;10.457142857142857;9.914285714285715;
46381;PMS5003;66809;52.974;-2.514;2023-07-20T09:15:28;10.72972972972973;10.162162162162161;
46381;PMS5003;66809;52.974;-2.514;2023-07-20T09:17:28;10.64102564102564;10.076923076923077;
46381;PMS5003;66809;52.974;-2.514;2023-07-20T09:19:28;10.731707317073171;10.048780487804878;
46381;PMS5003;66809;52.974;-2.514;2023-07-20T09:21:28;10.976744186046512;10.279069767441861;
46381;PMS5003;66809;52.974;-2.514;2023-07-20T09:23:31;11.022222222222222;10.266666666666667;
46381;PMS5003;66809;52.974;-2.514;2023-07-20T09:25:27;10.936170212765957;10.191489361702128;
46381;PMS5003;66809;52.974;-2.514;2023-07-20T09:27:34;11.0;10.224489795918368;
46381;PMS5003;66809;52.974;-2.514;2023-07-20T09:29:28;11.0;10.254901960784315;
46381;PMS5003;66809;52.974;-2.514;2023-07-20T09:31:27;11.056603773584905;10.320754716981131;
46381;PMS5003;66809;52.974;-2.514;2023-07-20T09:33:28;11.036363636363637;10.327272727272728;
46381;PMS5003;66809;52.974;-2.514;2023-07-20T09:35:27;11.017543859649123;10.298245614035087;
46381;PMS5003;66809;52.974;-2.514;2023-07-20T09:37:28;11.05084745762712;10.35593220338983;
46381;PMS5003;66809;52.974;-2.514;2023-07-20T09:39:27;11.266666666666667;10.516666666666667;